Time;durP1;ratioP1;P1;durP2;ratioP2;P2;SDS_P1;SDS_P2;PMS_P1;PMS_P2;Temp;Humidity;BMP_temperature;BMP_pressure;BME280_temperature;BME280_humidity;BME280_pressure;Samples;Min_cycle;Max_cycle;Signal;HPM_P1;HPM_P2
2023/05/22 03:29:54;;;;;;;16.50;11.67;;;;;;;;;;4893425;29;20474;-90
2023/05/22 03:32:20;;;;;;;16.20;11.47;;;;;;;;;;4904589;29;20524;-91
2023/05/22 03:34:47;;;;;;;15.73;11.13;;;;;;;;;;4874749;29;20501;-92
2023/05/22 03:37:12;;;;;;;13.20;11.77;;;;;;;;;;4889900;29;20437;-90
2023/05/22 03:39:39;;;;;;;15.80;12.13;;;;;;;;;;4890800;29;20440;-90
2023/05/22 03:42:05;;;;;;;13.57;10.80;;;;;;;;;;4889666;29;20445;-91
2023/05/22 03:44:31;;;;;;;16.17;12.73;;;;;;;;;;4905898;29;20912;-92
2023/05/22 03:46:57;;;;;;;14.67;11.37;;;;;;;;;;4892324;29;20474;-91
2023/05/22 03:49:23;;;;;;;14.53;11.90;;;;;;;;;;4902578;29;20505;-88
2023/05/22 03:51:49;;;;;;;13.60;10.97;;;;;;;;;;4883726;29;20469;-89
2023/05/22 03:54:15;;;;;;;16.80;12.90;;;;;;;;;;4870172;29;20440;-88
2023/05/22 03:56:47;;;;;;;15.90;11.70;;;;;;;;;;4894807;29;20436;-92
2023/05/22 03:59:32;;;;;;;13.50;11.97;;;;;;;;;;4923809;29;20424;-92
2023/05/22 04:02:03;;;;;;;15.00;12.47;;;;;;;;;;4924267;29;20420;-92
2023/05/22 04:04:37;;;;;;;14.40;11.87;;;;;;;;;;4924282;29;20425;-92
2023/05/22 04:10:25;;;;;;;14.63;11.70;;;;;;;;;;4925247;29;20450;-92
2023/05/22 04:13:01;;;;;;;13.10;11.07;;;;;;;;;;4921635;29;20435;-92
2023/05/22 04:16:11;;;;;;;13.07;10.93;;;;;;;;;;4921291;29;20392;-92
2023/05/22 04:18:45;;;;;;;14.10;12.57;;;;;;;;;;4889650;29;20437;-92
2023/05/22 04:21:42;;;;;;;16.37;12.47;;;;;;;;;;4891511;29;20421;-92
2023/05/22 04:24:17;;;;;;;14.93;11.77;;;;;;;;;;4909588;29;20895;-93
2023/05/22 04:26:59;;;;;;;16.43;12.90;;;;;;;;;;4893770;29;20417;-93
2023/05/22 04:29:28;;;;;;;16.70;13.13;;;;;;;;;;4896831;29;20421;-93
2023/05/22 04:35:11;;;;;;;13.73;11.70;;;;;;;;;;4890436;29;20521;-92
2023/05/22 04:37:39;;;;;;;14.47;11.80;;;;;;;;;;4897213;29;20447;-92
2023/05/22 04:40:10;;;;;;;15.10;11.53;;;;;;;;;;4911815;29;20433;-93
2023/05/22 04:42:44;;;;;;;15.57;12.73;;;;;;;;;;4907673;29;20417;-92
2023/05/22 12:29:22;;;;;;;12.30;11.00;;;;;;;;;;4907312;29;20466;-93
2023/05/22 12:31:48;;;;;;;12.63;11.40;;;;;;;;;;4902461;29;20443;-94
2023/05/22 12:34:22;;;;;;;11.20;10.10;;;;;;;;;;4893045;29;20417;-94
2023/05/22 12:36:48;;;;;;;12.20;10.40;;;;;;;;;;4898438;29;20488;-94
2023/05/22 12:39:18;;;;;;;11.37;9.83;;;;;;;;;;4887716;29;20502;-94
2023/05/22 12:41:45;;;;;;;11.30;8.87;;;;;;;;;;4901864;29;20459;-94
2023/05/22 18:27:54;;;;;;;12.23;8.17;;;;;;;;;;793551;23;20762;-92
2023/05/22 18:30:20;;;;;;;9.83;8.10;;;;;;;;;;4943412;28;20506;-95
2023/05/22 18:32:48;;;;;;;8.23;7.47;;;;;;;;;;4948103;29;20499;-94
2023/05/22 18:35:14;;;;;;;9.83;8.80;;;;;;;;;;4947222;29;20430;-94
2023/05/22 18:37:40;;;;;;;10.33;8.83;;;;;;;;;;4945269;29;20506;-94
2023/05/22 18:40:08;;;;;;;9.23;8.30;;;;;;;;;;4945145;29;20427;-94
2023/05/22 18:42:34;;;;;;;11.83;8.30;;;;;;;;;;4944515;29;20527;-94
2023/05/22 18:45:00;;;;;;;11.47;8.40;;;;;;;;;;4945530;29;20430;-94
2023/05/22 18:47:26;;;;;;;8.20;7.30;;;;;;;;;;4944182;29;20439;-93
2023/05/22 18:49:52;;;;;;;8.90;7.97;;;;;;;;;;4946377;29;20420;-94
2023/05/22 18:52:18;;;;;;;9.97;8.87;;;;;;;;;;4947340;29;20834;-92
2023/05/22 18:54:44;;;;;;;9.77;8.77;;;;;;;;;;4945984;29;20499;-94
2023/05/22 18:57:11;;;;;;;10.90;8.37;;;;;;;;;;4947575;29;20932;-95
2023/05/22 18:59:42;;;;;;;12.53;8.90;;;;;;;;;;4949447;29;20500;-96
2023/05/22 19:25:45;;;;;;;12.98;9.18;;;;;;;;;;6227730;22;1573338;-93
2023/05/22 19:28:48;;;;;;;15.10;8.60;;;;;;;;;;6174610;23;20160;-95
2023/05/22 19:31:15;;;;;;;10.07;8.50;;;;;;;;;;6198804;23;20454;-95
2023/05/22 19:33:41;;;;;;;13.00;10.07;;;;;;;;;;6174424;23;20391;-95
2023/05/22 19:36:07;;;;;;;12.73;9.47;;;;;;;;;;6177925;23;20388;-95
2023/05/22 19:38:33;;;;;;;10.30;9.10;;;;;;;;;;6174848;23;20473;-95
2023/05/22 19:40:59;;;;;;;11.20;9.53;;;;;;;;;;6176012;23;20739;-95
2023/05/22 19:43:30;;;;;;;11.80;9.20;;;;;;;;;;6176693;23;20380;-94
2023/05/22 19:45:58;;;;;;;10.10;9.03;;;;;;;;;;6176654;23;20386;-94
2023/05/22 19:48:25;;;;;;;10.63;9.60;;;;;;;;;;6175403;23;20385;-94
2023/05/22 19:50:51;;;;;;;11.20;8.53;;;;;;;;;;6174036;23;20383;-95
2023/05/22 19:53:17;;;;;;;10.60;9.00;;;;;;;;;;6175311;23;20394;-94
2023/05/22 19:55:46;;;;;;;9.80;8.63;;;;;;;;;;6173912;23;20438;-94
2023/05/22 19:58:12;;;;;;;8.57;7.67;;;;;;;;;;6175903;23;20430;-94
2023/05/22 20:00:39;;;;;;;10.13;8.30;;;;;;;;;;6174947;23;20415;-94
2023/05/22 20:03:08;;;;;;;9.80;8.53;;;;;;;;;;6174935;23;20439;-94
2023/05/22 20:05:37;;;;;;;9.87;8.87;;;;;;;;;;6166903;23;20866;-91
2023/05/22 20:08:09;;;;;;;12.53;8.70;;;;;;;;;;6167147;23;20375;-91
2023/05/22 20:10:41;;;;;;;10.90;7.93;;;;;;;;;;6199501;23;20847;-94
2023/05/22 20:13:10;;;;;;;11.63;8.90;;;;;;;;;;6173240;23;20383;-94
2023/05/22 20:15:36;;;;;;;9.57;7.90;;;;;;;;;;6167441;23;20438;-93
2023/05/22 20:18:02;;;;;;;10.50;8.60;;;;;;;;;;6170201;23;20706;-92
2023/05/22 20:20:29;;;;;;;10.13;8.20;;;;;;;;;;6167376;23;20415;-92
2023/05/22 20:22:56;;;;;;;8.83;8.00;;;;;;;;;;6166774;23;20698;-92
2023/05/22 20:25:28;;;;;;;11.27;8.77;;;;;;;;;;6166667;23;20455;-92
2023/05/22 20:27:54;;;;;;;8.50;7.60;;;;;;;;;;6167709;23;20398;-92
2023/05/22 20:30:20;;;;;;;10.10;9.00;;;;;;;;;;6166192;23;20475;-93
2023/05/22 20:32:48;;;;;;;10.37;8.63;;;;;;;;;;6167514;23;20392;-92
2023/05/22 20:35:18;;;;;;;9.73;8.73;;;;;;;;;;6166005;23;20384;-92
2023/05/22 20:37:49;;;;;;;12.30;8.00;;;;;;;;;;6192111;23;20732;-92
2023/05/22 20:40:16;;;;;;;8.70;7.80;;;;;;;;;;6165673;23;20422;-94
2023/05/22 20:42:44;;;;;;;13.50;8.67;;;;;;;;;;6167415;23;20387;-94
2023/05/22 20:45:14;;;;;;;7.83;7.03;;;;;;;;;;6168396;23;20408;-95
2023/05/22 20:47:41;;;;;;;8.00;7.20;;;;;;;;;;6170229;23;20368;-95
2023/05/22 20:50:07;;;;;;;8.10;7.30;;;;;;;;;;6168272;23;20380;-95
2023/05/22 20:52:35;;;;;;;8.97;7.20;;;;;;;;;;6171202;23;20447;-95
2023/05/22 20:55:01;;;;;;;9.70;8.40;;;;;;;;;;6170985;23;20379;-94
2023/05/22 20:57:31;;;;;;;9.80;7.93;;;;;;;;;;6166982;23;20428;-95
2023/05/22 21:00:12;;;;;;;8.53;7.33;;;;;;;;;;6166753;23;20379;-94
2023/05/22 21:02:38;;;;;;;9.47;7.53;;;;;;;;;;6169333;23;20357;-94
2023/05/22 21:05:07;;;;;;;12.47;7.73;;;;;;;;;;6167863;23;20375;-94
2023/05/22 21:07:35;;;;;;;9.53;7.73;;;;;;;;;;6168676;23;20459;-95
2023/05/22 21:10:01;;;;;;;8.90;8.00;;;;;;;;;;6169204;23;20379;-93
2023/05/22 21:12:27;;;;;;;12.20;8.10;;;;;;;;;;6167916;23;20431;-93
2023/05/22 21:14:54;;;;;;;16.33;8.13;;;;;;;;;;6167545;23;20371;-93
2023/05/22 21:17:20;;;;;;;9.17;7.33;;;;;;;;;;6166638;23;20379;-93
2023/05/22 21:19:46;;;;;;;8.93;7.60;;;;;;;;;;6166566;23;20372;-93
2023/05/22 21:22:12;;;;;;;9.73;7.80;;;;;;;;;;6166702;23;20419;-92
2023/05/22 21:24:38;;;;;;;9.93;7.77;;;;;;;;;;6163610;23;20686;-94
2023/05/22 21:27:04;;;;;;;11.17;8.10;;;;;;;;;;6162183;23;20407;-92
2023/05/22 21:29:34;;;;;;;9.70;8.70;;;;;;;;;;6161611;23;20376;-93
2023/05/22 21:32:00;;;;;;;9.27;8.33;;;;;;;;;;6163083;23;20438;-92
2023/05/22 21:34:26;;;;;;;11.40;8.20;;;;;;;;;;6160502;23;20844;-92
2023/05/22 21:36:52;;;;;;;8.73;7.83;;;;;;;;;;6161313;23;20391;-93
2023/05/22 21:39:18;;;;;;;12.20;8.70;;;;;;;;;;6160576;23;20411;-92
2023/05/22 21:42:07;;;;;;;8.50;7.60;;;;;;;;;;6159405;23;20777;-92
2023/05/22 21:44:34;;;;;;;8.43;7.43;;;;;;;;;;6184404;23;20463;-92
2023/05/22 21:47:03;;;;;;;9.47;7.80;;;;;;;;;;6160859;23;20380;-93
2023/05/22 21:49:30;;;;;;;8.00;7.20;;;;;;;;;;6180519;23;20383;-89
2023/05/22 21:51:56;;;;;;;9.90;7.90;;;;;;;;;;6160809;23;20388;-91
2023/05/22 21:59:38;;;;;;;10.50;7.53;;;;;;;;;;6184541;23;20423;-93
2023/05/22 22:02:04;;;;;;;9.80;7.73;;;;;;;;;;6157612;23;20517;-93
2023/05/22 22:04:30;;;;;;;9.77;8.37;;;;;;;;;;6158126;23;20444;-92
2023/05/22 22:06:56;;;;;;;9.30;7.77;;;;;;;;;;6160384;23;20411;-93
2023/05/22 22:09:22;;;;;;;8.80;7.30;;;;;;;;;;6157777;23;20376;-90
2023/05/22 22:11:48;;;;;;;10.70;7.90;;;;;;;;;;6160074;23;20753;-90
2023/05/22 22:14:14;;;;;;;9.00;7.07;;;;;;;;;;6161109;23;20392;-92
2023/05/22 22:16:40;;;;;;;10.73;8.13;;;;;;;;;;6162006;23;20443;-91
2023/05/22 22:19:06;;;;;;;8.27;7.47;;;;;;;;;;6161231;23;20384;-91
2023/05/22 22:21:32;;;;;;;9.10;7.17;;;;;;;;;;6163822;23;20424;-91
2023/05/22 22:23:59;;;;;;;8.27;6.50;;;;;;;;;;6161852;23;20376;-91
2023/05/22 22:26:28;;;;;;;7.80;7.00;;;;;;;;;;6186810;23;20368;-91
2023/05/22 22:28:55;;;;;;;8.00;6.80;;;;;;;;;;6161142;23;20376;-91
2023/05/22 22:31:24;;;;;;;8.90;7.83;;;;;;;;;;6184393;23;20419;-91
2023/05/22 22:33:50;;;;;;;7.40;5.80;;;;;;;;;;6159445;23;20438;-90
2023/05/22 22:36:17;;;;;;;8.53;7.20;;;;;;;;;;6160507;23;20407;-91
2023/05/22 22:38:43;;;;;;;8.47;6.53;;;;;;;;;;6160665;23;20873;-91
2023/05/22 22:41:12;;;;;;;8.63;7.10;;;;;;;;;;6159083;23;20411;-91
2023/05/22 22:43:38;;;;;;;9.93;8.20;;;;;;;;;;6160254;23;20982;-90
2023/05/22 22:46:04;;;;;;;9.97;8.70;;;;;;;;;;6161220;23;20390;-91
2023/05/22 22:48:30;;;;;;;11.37;8.87;;;;;;;;;;6161198;23;20387;-91
2023/05/22 22:50:56;;;;;;;15.60;11.77;;;;;;;;;;6161013;23;20388;-92
2023/05/22 22:53:25;;;;;;;14.00;11.17;;;;;;;;;;6163568;23;20388;-92
2023/05/22 22:55:55;;;;;;;17.13;13.73;;;;;;;;;;6163453;23;20495;-90
2023/05/22 22:58:24;;;;;;;15.53;12.00;;;;;;;;;;6161650;23;20388;-93
2023/05/22 23:00:50;;;;;;;18.30;13.90;;;;;;;;;;6162101;23;20412;-91
2023/05/22 23:03:16;;;;;;;18.83;13.93;;;;;;;;;;6161215;23;20384;-90
2023/05/22 23:05:42;;;;;;;20.40;14.77;;;;;;;;;;6161629;23;20390;-90
2023/05/22 23:11:16;;;;;;;18.80;14.97;;;;;;;;;;6183941;23;20348;-93
2023/05/22 23:13:46;;;;;;;21.07;14.80;;;;;;;;;;6160838;23;20476;-92
2023/05/22 23:16:12;;;;;;;19.97;14.80;;;;;;;;;;6162136;23;20868;-93
2023/05/22 23:18:38;;;;;;;19.63;15.90;;;;;;;;;;6129036;23;20416;-92
2023/05/22 23:21:04;;;;;;;23.67;18.30;;;;;;;;;;6107059;23;20420;-92
2023/05/22 23:23:34;;;;;;;18.40;15.63;;;;;;;;;;6108215;23;20480;-92
2023/05/22 23:26:09;;;;;;;27.83;19.03;;;;;;;;;;6108149;23;20377;-93
2023/05/22 23:28:35;;;;;;;27.30;18.30;;;;;;;;;;6107804;23;20452;-92
2023/05/22 23:31:01;;;;;;;23.20;17.67;;;;;;;;;;6106472;23;20369;-93
2023/05/22 23:33:27;;;;;;;25.10;18.03;;;;;;;;;;6106381;23;20380;-93
2023/05/22 23:35:55;;;;;;;27.10;18.50;;;;;;;;;;6104790;23;20379;-93
2023/05/22 23:38:24;;;;;;;26.73;19.30;;;;;;;;;;6104530;23;20385;-93
2023/05/22 23:40:52;;;;;;;25.37;18.13;;;;;;;;;;6105612;23;20452;-92
2023/05/22 23:43:18;;;;;;;38.20;20.73;;;;;;;;;;6104756;23;20402;-92
2023/05/22 23:45:48;;;;;;;30.43;19.73;;;;;;;;;;6106159;23;20385;-91
2023/05/22 23:48:15;;;;;;;28.30;19.30;;;;;;;;;;6105451;23;20725;-90
2023/05/22 23:50:41;;;;;;;38.23;22.80;;;;;;;;;;6157103;23;20383;-89
2023/05/22 23:53:07;;;;;;;33.90;20.90;;;;;;;;;;6159702;23;21135;-90
2023/05/22 23:55:39;;;;;;;43.67;24.53;;;;;;;;;;6163282;23;20442;-91
2023/05/22 23:58:05;;;;;;;37.67;22.97;;;;;;;;;;6191162;23;20376;-92
